Hampton, Kentucky
Current Conditions -  °F | °C
As of 7:15 AM on Monday 22 Dec 2014 (Local Time) from K5M9 Reporting Station
Overcast Overcast  
Wind Chill: 41°   Ceiling: 1600
Heat Index: 44°   Visibility: 7mi
Dew Point: 43°   Wind: 7mph
Humidity: 93%   Direction: 160°SSE
Pressure: 29.89"   Gusts: NA
Location:  37.28°N, 88.37°W
Report Text: K5M9 221315Z AUTO 16006KT 7SM OVC016 07/06 A2989 RMK AO2 T00690059
Loading
Personal Weather Stations






























Interactive Weather Map New forecast layout! Learn more

10-Day Weather Forecast

Advertisements
Track Severe Weather on mobile